sensor_id;sensor_type;location;lat;lon;timestamp;pressure;altitude;pressure_sealevel;temperature;humidity
56052;BME280;41919;42.648;23.384;2022-08-25T00:00:44;94457.44;;;22.27;73.08
56052;BME280;41919;42.648;23.384;2022-08-25T00:03:11;94460.00;;;22.38;72.73
56052;BME280;41919;42.648;23.384;2022-08-25T00:05:37;94464.75;;;22.46;72.21
56052;BME280;41919;42.648;23.384;2022-08-25T00:08:03;94443.53;;;22.36;72.54
56052;BME280;41919;42.648;23.384;2022-08-25T00:10:31;94445.16;;;22.31;72.24
56052;BME280;41919;42.648;23.384;2022-08-25T00:12:57;94457.69;;;22.31;72.50
56052;BME280;41919;42.648;23.384;2022-08-25T00:15:23;94447.84;;;21.92;74.00
56052;BME280;41919;42.648;23.384;2022-08-25T00:17:49;94459.31;;;21.87;74.59
56052;BME280;41919;42.648;23.384;2022-08-25T00:20:14;94456.78;;;22.06;73.65
56052;BME280;41919;42.648;23.384;2022-08-25T00:22:40;94460.22;;;22.07;73.75
56052;BME280;41919;42.648;23.384;2022-08-25T00:25:06;94404.53;;;21.86;73.59
56052;BME280;41919;42.648;23.384;2022-08-25T00:27:32;94441.25;;;22.19;73.44
56052;BME280;41919;42.648;23.384;2022-08-25T00:29:58;94443.63;;;22.25;73.31
56052;BME280;41919;42.648;23.384;2022-08-25T00:32:24;94408.88;;;22.06;72.74
56052;BME280;41919;42.648;23.384;2022-08-25T00:34:51;94446.19;;;22.36;73.01
56052;BME280;41919;42.648;23.384;2022-08-25T00:37:17;94444.38;;;22.31;72.78
56052;BME280;41919;42.648;23.384;2022-08-25T00:39:43;94464.13;;;22.25;72.91
56052;BME280;41919;42.648;23.384;2022-08-25T00:42:09;94458.59;;;22.11;73.72
56052;BME280;41919;42.648;23.384;2022-08-25T00:44:35;94452.97;;;21.83;74.61
56052;BME280;41919;42.648;23.384;2022-08-25T00:47:02;94461.09;;;21.97;74.42
56052;BME280;41919;42.648;23.384;2022-08-25T00:52:15;94464.91;;;22.25;73.40
56052;BME280;41919;42.648;23.384;2022-08-25T00:54:51;94449.97;;;22.29;73.05
56052;BME280;41919;42.648;23.384;2022-08-25T00:57:24;94446.47;;;22.34;72.84
56052;BME280;41919;42.648;23.384;2022-08-25T00:59:51;94391.34;;;22.05;72.63
56052;BME280;41919;42.648;23.384;2022-08-25T01:02:17;94406.25;;;22.01;73.16
56052;BME280;41919;42.648;23.384;2022-08-25T01:04:43;94429.88;;;22.13;73.56
56052;BME280;41919;42.648;23.384;2022-08-25T01:07:10;94418.41;;;22.12;73.30
56052;BME280;41919;42.648;23.384;2022-08-25T01:09:37;94441.16;;;22.34;73.07
56052;BME280;41919;42.648;23.384;2022-08-25T01:12:03;94375.69;;;21.99;72.99
56052;BME280;41919;42.648;23.384;2022-08-25T01:14:30;94429.53;;;22.20;73.88
56052;BME280;41919;42.648;23.384;2022-08-25T01:16:57;94421.00;;;22.23;73.20
56052;BME280;41919;42.648;23.384;2022-08-25T01:19:25;94397.59;;;22.20;73.41
56052;BME280;41919;42.648;23.384;2022-08-25T01:21:52;94422.69;;;22.43;72.52
56052;BME280;41919;42.648;23.384;2022-08-25T01:24:38;94421.00;;;22.52;72.29
56052;BME280;41919;42.648;23.384;2022-08-25T01:27:06;94409.00;;;22.55;72.28
56052;BME280;41919;42.648;23.384;2022-08-25T01:29:32;94422.44;;;22.68;71.55
56052;BME280;41919;42.648;23.384;2022-08-25T01:32:00;94336.09;;;22.21;71.12
56052;BME280;41919;42.648;23.384;2022-08-25T01:34:29;94424.75;;;22.75;70.97
56052;BME280;41919;42.648;23.384;2022-08-25T01:36:56;94427.38;;;22.80;70.95
56052;BME280;41919;42.648;23.384;2022-08-25T01:39:24;94384.25;;;22.54;70.95
56052;BME280;41919;42.648;23.384;2022-08-25T01:44:31;94368.44;;;22.39;71.32
56052;BME280;41919;42.648;23.384;2022-08-25T01:46:57;94426.88;;;22.78;71.08
56052;BME280;41919;42.648;23.384;2022-08-25T01:49:23;94370.19;;;22.48;70.92
56052;BME280;41919;42.648;23.384;2022-08-25T01:52:15;94430.16;;;22.94;70.55
56052;BME280;41919;42.648;23.384;2022-08-25T01:54:43;94399.69;;;22.76;70.72
56052;BME280;41919;42.648;23.384;2022-08-25T01:57:09;94414.91;;;22.76;71.31
56052;BME280;41919;42.648;23.384;2022-08-25T01:59:34;94425.22;;;22.82;71.09
56052;BME280;41919;42.648;23.384;2022-08-25T02:02:00;94410.03;;;22.83;70.91
56052;BME280;41919;42.648;23.384;2022-08-25T02:04:26;94400.16;;;22.83;70.91
56052;BME280;41919;42.648;23.384;2022-08-25T02:06:53;94350.63;;;22.58;70.36
56052;BME280;41919;42.648;23.384;2022-08-25T02:09:18;94352.00;;;22.56;70.34
56052;BME280;41919;42.648;23.384;2022-08-25T02:11:45;94382.09;;;22.80;70.54
56052;BME280;41919;42.648;23.384;2022-08-25T02:14:13;94400.06;;;22.94;70.08
56052;BME280;41919;42.648;23.384;2022-08-25T02:16:40;94395.00;;;22.92;70.38
56052;BME280;41919;42.648;23.384;2022-08-25T02:19:08;94368.53;;;22.77;70.13
56052;BME280;41919;42.648;23.384;2022-08-25T02:21:36;94409.56;;;23.00;70.30
56052;BME280;41919;42.648;23.384;2022-08-25T02:24:02;94403.28;;;22.90;70.46
56052;BME280;41919;42.648;23.384;2022-08-25T02:26:28;94353.13;;;22.20;72.01
56052;BME280;41919;42.648;23.384;2022-08-25T02:28:54;94395.41;;;22.56;71.95
56052;BME280;41919;42.648;23.384;2022-08-25T02:31:22;94408.66;;;22.61;71.51
56052;BME280;41919;42.648;23.384;2022-08-25T02:33:48;94388.19;;;22.57;71.55
56052;BME280;41919;42.648;23.384;2022-08-25T02:36:15;94387.97;;;22.53;71.49
56052;BME280;41919;42.648;23.384;2022-08-25T02:38:40;94375.00;;;22.46;71.25
56052;BME280;41919;42.648;23.384;2022-08-25T02:41:17;94407.06;;;22.60;71.57
56052;BME280;41919;42.648;23.384;2022-08-25T02:43:45;94404.25;;;22.51;71.83
56052;BME280;41919;42.648;23.384;2022-08-25T02:46:13;94369.59;;;22.27;71.89
56052;BME280;41919;42.648;23.384;2022-08-25T02:48:39;94405.03;;;22.52;71.74
56052;BME280;41919;42.648;23.384;2022-08-25T02:51:09;94367.09;;;22.07;72.18
56052;BME280;41919;42.648;23.384;2022-08-25T02:53:35;94422.53;;;22.34;72.45
56052;BME280;41919;42.648;23.384;2022-08-25T02:56:05;94410.56;;;22.31;72.67
56052;BME280;41919;42.648;23.384;2022-08-25T02:58:31;94380.13;;;22.08;72.64
56052;BME280;41919;42.648;23.384;2022-08-25T03:00:57;94415.38;;;22.24;72.73
56052;BME280;41919;42.648;23.384;2022-08-25T03:03:22;94363.25;;;21.94;72.60
56052;BME280;41919;42.648;23.384;2022-08-25T03:05:48;94405.81;;;22.28;72.51
56052;BME280;41919;42.648;23.384;2022-08-25T03:08:14;94362.22;;;21.90;72.50
56052;BME280;41919;42.648;23.384;2022-08-25T03:10:39;94392.91;;;22.06;72.68
56052;BME280;41919;42.648;23.384;2022-08-25T03:13:05;94367.28;;;21.86;73.00
56052;BME280;41919;42.648;23.384;2022-08-25T03:15:31;94386.31;;;22.04;72.64
56052;BME280;41919;42.648;23.384;2022-08-25T03:17:56;94405.84;;;22.18;72.43
56052;BME280;41919;42.648;23.384;2022-08-25T03:20:24;94398.13;;;22.17;72.50
56052;BME280;41919;42.648;23.384;2022-08-25T03:22:50;94388.34;;;22.12;72.16
56052;BME280;41919;42.648;23.384;2022-08-25T03:25:17;94388.72;;;22.00;72.34
56052;BME280;41919;42.648;23.384;2022-08-25T03:28:02;94431.66;;;22.23;71.86
56052;BME280;41919;42.648;23.384;2022-08-25T03:30:28;94425.06;;;22.15;71.82
56052;BME280;41919;42.648;23.384;2022-08-25T03:32:54;94431.97;;;22.11;72.41
56052;BME280;41919;42.648;23.384;2022-08-25T03:35:21;94425.94;;;22.05;72.54
56052;BME280;41919;42.648;23.384;2022-08-25T03:37:47;94427.22;;;22.13;72.34
56052;BME280;41919;42.648;23.384;2022-08-25T03:40:15;94383.19;;;21.91;72.02
56052;BME280;41919;42.648;23.384;2022-08-25T03:42:43;94426.00;;;22.24;71.84
56052;BME280;41919;42.648;23.384;2022-08-25T03:45:10;94428.50;;;22.16;72.04
56052;BME280;41919;42.648;23.384;2022-08-25T03:47:38;94415.47;;;22.14;72.00
56052;BME280;41919;42.648;23.384;2022-08-25T03:50:09;94412.28;;;22.12;72.19
56052;BME280;41919;42.648;23.384;2022-08-25T03:52:35;94371.00;;;21.85;72.21
56052;BME280;41919;42.648;23.384;2022-08-25T03:55:03;94361.63;;;21.64;72.72
56052;BME280;41919;42.648;23.384;2022-08-25T03:57:28;94408.81;;;21.82;73.65
56052;BME280;41919;42.648;23.384;2022-08-25T03:59:54;94363.78;;;21.57;77.14
56052;BME280;41919;42.648;23.384;2022-08-25T04:02:19;94371.00;;;21.85;75.78
56052;BME280;41919;42.648;23.384;2022-08-25T04:04:45;94395.31;;;22.08;73.57
56052;BME280;41919;42.648;23.384;2022-08-25T04:07:10;94405.31;;;22.21;72.66
56052;BME280;41919;42.648;23.384;2022-08-25T04:09:36;94417.78;;;22.26;72.49
56052;BME280;41919;42.648;23.384;2022-08-25T04:12:01;94379.97;;;21.95;72.62
56052;BME280;41919;42.648;23.384;2022-08-25T04:14:27;94413.81;;;22.23;72.63
56052;BME280;41919;42.648;23.384;2022-08-25T04:16:52;94358.75;;;21.89;72.79
56052;BME280;41919;42.648;23.384;2022-08-25T04:19:18;94419.31;;;22.32;72.25
56052;BME280;41919;42.648;23.384;2022-08-25T04:21:45;94392.00;;;22.26;72.25
56052;BME280;41919;42.648;23.384;2022-08-25T04:24:12;94406.22;;;22.41;71.87
56052;BME280;41919;42.648;23.384;2022-08-25T04:26:44;94401.88;;;22.50;71.30
56052;BME280;41919;42.648;23.384;2022-08-25T04:29:12;94350.56;;;22.10;71.65
56052;BME280;41919;42.648;23.384;2022-08-25T04:31:40;94361.69;;;22.17;71.49
56052;BME280;41919;42.648;23.384;2022-08-25T04:34:06;94399.59;;;22.38;71.67
56052;BME280;41919;42.648;23.384;2022-08-25T04:36:32;94352.25;;;22.01;71.78
56052;BME280;41919;42.648;23.384;2022-08-25T04:38:58;94404.91;;;22.38;71.60
56052;BME280;41919;42.648;23.384;2022-08-25T04:41:24;94386.28;;;22.38;71.28
56052;BME280;41919;42.648;23.384;2022-08-25T04:43:50;94364.78;;;22.29;70.66
56052;BME280;41919;42.648;23.384;2022-08-25T04:46:19;94392.56;;;22.47;70.87
56052;BME280;41919;42.648;23.384;2022-08-25T04:48:45;94416.81;;;22.70;70.97
56052;BME280;41919;42.648;23.384;2022-08-25T04:51:12;94409.00;;;22.79;70.48
56052;BME280;41919;42.648;23.384;2022-08-25T04:53:39;94413.25;;;22.80;70.51
56052;BME280;41919;42.648;23.384;2022-08-25T04:56:10;94419.91;;;22.82;70.28
56052;BME280;41919;42.648;23.384;2022-08-25T04:58:37;94428.41;;;22.84;70.33
56052;BME280;41919;42.648;23.384;2022-08-25T05:01:04;94424.72;;;23.04;69.35
56052;BME280;41919;42.648;23.384;2022-08-25T05:05:55;94421.03;;;23.24;67.80
56052;BME280;41919;42.648;23.384;2022-08-25T05:08:20;94370.88;;;23.07;67.17
56052;BME280;41919;42.648;23.384;2022-08-25T05:10:46;94424.00;;;23.42;66.98
56052;BME280;41919;42.648;23.384;2022-08-25T05:13:11;94414.56;;;23.49;66.41
56052;BME280;41919;42.648;23.384;2022-08-25T05:15:37;94400.34;;;23.35;66.72
56052;BME280;41919;42.648;23.384;2022-08-25T05:18:16;94405.47;;;23.51;66.75
56052;BME280;41919;42.648;23.384;2022-08-25T05:20:41;94363.59;;;23.32;66.19
56052;BME280;41919;42.648;23.384;2022-08-25T05:23:07;94390.91;;;23.62;66.49
56052;BME280;41919;42.648;23.384;2022-08-25T05:25:33;94346.50;;;23.52;65.06
56052;BME280;41919;42.648;23.384;2022-08-25T05:27:58;94394.69;;;23.80;65.55
56052;BME280;41919;42.648;23.384;2022-08-25T05:30:24;94360.59;;;23.72;64.93
56052;BME280;41919;42.648;23.384;2022-08-25T05:32:49;94355.69;;;23.98;64.13
56052;BME280;41919;42.648;23.384;2022-08-25T05:35:15;94401.97;;;24.40;63.18
56052;BME280;41919;42.648;23.384;2022-08-25T05:37:41;94349.09;;;24.09;63.10
56052;BME280;41919;42.648;23.384;2022-08-25T05:40:07;94347.50;;;24.08;63.18
56052;BME280;41919;42.648;23.384;2022-08-25T05:42:33;94363.47;;;24.41;62.33
56052;BME280;41919;42.648;23.384;2022-08-25T05:44:59;94410.34;;;24.80;61.20
56052;BME280;41919;42.648;23.384;2022-08-25T05:47:25;94316.16;;;24.27;61.16
56052;BME280;41919;42.648;23.384;2022-08-25T05:49:50;94399.44;;;24.90;60.47
56052;BME280;41919;42.648;23.384;2022-08-25T05:52:16;94412.53;;;24.78;61.10
56052;BME280;41919;42.648;23.384;2022-08-25T05:54:41;94404.28;;;24.88;60.92
56052;BME280;41919;42.648;23.384;2022-08-25T05:57:07;94395.38;;;24.93;60.57
56052;BME280;41919;42.648;23.384;2022-08-25T05:59:33;94364.00;;;24.71;60.39
56052;BME280;41919;42.648;23.384;2022-08-25T06:01:59;94351.25;;;24.68;60.17
56052;BME280;41919;42.648;23.384;2022-08-25T06:04:43;94354.81;;;24.77;60.40
56052;BME280;41919;42.648;23.384;2022-08-25T06:07:09;94404.78;;;25.18;60.30
56052;BME280;41919;42.648;23.384;2022-08-25T06:09:38;94352.94;;;24.91;59.81
56052;BME280;41919;42.648;23.384;2022-08-25T06:12:04;94346.75;;;25.18;59.68
56052;BME280;41919;42.648;23.384;2022-08-25T06:14:29;94390.25;;;25.60;58.74
56052;BME280;41919;42.648;23.384;2022-08-25T06:16:55;94366.66;;;25.62;57.70
56052;BME280;41919;42.648;23.384;2022-08-25T06:19:22;94387.41;;;25.79;57.46
56052;BME280;41919;42.648;23.384;2022-08-25T06:21:48;94402.25;;;25.86;57.62
56052;BME280;41919;42.648;23.384;2022-08-25T06:24:13;94344.91;;;25.87;56.87
56052;BME280;41919;42.648;23.384;2022-08-25T06:26:39;94394.47;;;26.52;55.77
56052;BME280;41919;42.648;23.384;2022-08-25T06:29:05;94397.16;;;26.83;55.07
56052;BME280;41919;42.648;23.384;2022-08-25T06:31:30;94305.13;;;26.56;54.08
56052;BME280;41919;42.648;23.384;2022-08-25T06:33:55;94344.16;;;26.80;53.56
56052;BME280;41919;42.648;23.384;2022-08-25T06:36:22;94340.03;;;27.40;53.06
56052;BME280;41919;42.648;23.384;2022-08-25T06:38:47;94387.88;;;27.99;51.24
56052;BME280;41919;42.648;23.384;2022-08-25T06:41:13;94392.84;;;28.44;50.70
56052;BME280;41919;42.648;23.384;2022-08-25T06:43:40;94360.44;;;28.58;49.51
56052;BME280;41919;42.648;23.384;2022-08-25T06:46:11;94389.75;;;29.19;48.37
56052;BME280;41919;42.648;23.384;2022-08-25T06:48:37;94408.00;;;29.35;47.45
56052;BME280;41919;42.648;23.384;2022-08-25T06:51:08;94369.03;;;29.41;46.46
56052;BME280;41919;42.648;23.384;2022-08-25T06:53:34;94401.78;;;29.73;46.53
56052;BME280;41919;42.648;23.384;2022-08-25T06:56:00;94399.13;;;29.85;45.31
56052;BME280;41919;42.648;23.384;2022-08-25T06:58:26;94422.47;;;30.35;45.19
56052;BME280;41919;42.648;23.384;2022-08-25T07:00:52;94408.84;;;30.65;44.49
56052;BME280;41919;42.648;23.384;2022-08-25T07:03:17;94415.84;;;30.91;43.24
56052;BME280;41919;42.648;23.384;2022-08-25T07:05:50;94406.44;;;31.09;42.48
56052;BME280;41919;42.648;23.384;2022-08-25T07:08:16;94374.56;;;30.20;43.35
56052;BME280;41919;42.648;23.384;2022-08-25T07:10:42;94399.06;;;29.94;44.88
56052;BME280;41919;42.648;23.384;2022-08-25T07:13:07;94410.31;;;29.75;45.30
56052;BME280;41919;42.648;23.384;2022-08-25T07:15:37;94403.38;;;29.44;45.58
56052;BME280;41919;42.648;23.384;2022-08-25T07:18:03;94357.50;;;28.72;46.54
56052;BME280;41919;42.648;23.384;2022-08-25T07:20:28;94374.09;;;28.74;46.82
56052;BME280;41919;42.648;23.384;2022-08-25T07:22:55;94323.13;;;28.48;46.30
56052;BME280;41919;42.648;23.384;2022-08-25T07:25:21;94315.63;;;28.71;45.86
56052;BME280;41919;42.648;23.384;2022-08-25T07:27:47;94400.47;;;29.49;46.57
56052;BME280;41919;42.648;23.384;2022-08-25T07:30:13;94360.94;;;29.41;44.97
56052;BME280;41919;42.648;23.384;2022-08-25T07:32:38;94401.50;;;29.36;45.98
56052;BME280;41919;42.648;23.384;2022-08-25T07:35:04;94403.00;;;29.75;45.97
56052;BME280;41919;42.648;23.384;2022-08-25T07:37:47;94373.88;;;29.47;45.13
56052;BME280;41919;42.648;23.384;2022-08-25T07:40:19;94368.75;;;29.33;45.91
56052;BME280;41919;42.648;23.384;2022-08-25T07:42:47;94374.22;;;29.46;44.83
56052;BME280;41919;42.648;23.384;2022-08-25T07:45:14;94411.16;;;29.37;46.09
56052;BME280;41919;42.648;23.384;2022-08-25T07:47:39;94412.75;;;29.59;45.69
56052;BME280;41919;42.648;23.384;2022-08-25T07:50:08;94367.09;;;29.41;45.48
56052;BME280;41919;42.648;23.384;2022-08-25T07:52:34;94394.72;;;29.59;45.38
56052;BME280;41919;42.648;23.384;2022-08-25T07:55:00;94362.72;;;29.07;46.08
56052;BME280;41919;42.648;23.384;2022-08-25T07:57:26;94406.31;;;29.51;45.83
56052;BME280;41919;42.648;23.384;2022-08-25T07:59:52;94416.19;;;29.89;44.54
56052;BME280;41919;42.648;23.384;2022-08-25T08:02:18;94390.31;;;29.76;43.96
56052;BME280;41919;42.648;23.384;2022-08-25T08:04:44;94406.56;;;29.37;45.28
56052;BME280;41919;42.648;23.384;2022-08-25T08:07:10;94365.13;;;29.71;44.25
56052;BME280;41919;42.648;23.384;2022-08-25T08:09:36;94400.91;;;30.35;43.29
56052;BME280;41919;42.648;23.384;2022-08-25T08:12:03;94398.06;;;30.77;42.92
56052;BME280;41919;42.648;23.384;2022-08-25T08:14:29;94388.41;;;31.01;41.53
56052;BME280;41919;42.648;23.384;2022-08-25T08:16:55;94355.91;;;30.60;41.98
56052;BME280;41919;42.648;23.384;2022-08-25T08:19:20;94342.69;;;30.92;41.35
56052;BME280;41919;42.648;23.384;2022-08-25T08:21:46;94340.63;;;31.26;40.20
56052;BME280;41919;42.648;23.384;2022-08-25T08:24:12;94383.38;;;31.77;39.45
56052;BME280;41919;42.648;23.384;2022-08-25T08:26:38;94358.41;;;32.08;38.88
56052;BME280;41919;42.648;23.384;2022-08-25T08:29:03;94331.97;;;32.01;38.17
56052;BME280;41919;42.648;23.384;2022-08-25T08:31:29;94374.03;;;32.59;36.85
56052;BME280;41919;42.648;23.384;2022-08-25T08:33:55;94331.25;;;32.33;35.15
56052;BME280;41919;42.648;23.384;2022-08-25T08:36:22;94365.22;;;32.62;35.50
56052;BME280;41919;42.648;23.384;2022-08-25T08:38:48;94383.66;;;32.56;35.26
56052;BME280;41919;42.648;23.384;2022-08-25T08:53:05;94325.06;;;32.32;32.79
56052;BME280;41919;42.648;23.384;2022-08-25T08:55:45;94368.28;;;32.76;32.50
56052;BME280;41919;42.648;23.384;2022-08-25T08:58:46;94376.66;;;32.87;32.86
56052;BME280;41919;42.648;23.384;2022-08-25T09:01:18;94374.66;;;33.16;32.56
56052;BME280;41919;42.648;23.384;2022-08-25T09:03:55;94342.81;;;32.77;32.16
56052;BME280;41919;42.648;23.384;2022-08-25T09:06:30;94361.56;;;32.70;31.27
56052;BME280;41919;42.648;23.384;2022-08-25T09:08:58;94376.34;;;32.44;31.66
56052;BME280;41919;42.648;23.384;2022-08-25T09:19:44;94384.84;;;31.09;35.32
56052;BME280;41919;42.648;23.384;2022-08-25T09:24:59;94381.88;;;30.77;34.96
56052;BME280;41919;42.648;23.384;2022-08-25T09:27:36;94368.28;;;30.74;34.93
56052;BME280;41919;42.648;23.384;2022-08-25T09:30:10;94334.88;;;30.41;35.91
56052;BME280;41919;42.648;23.384;2022-08-25T09:32:56;94376.56;;;30.56;36.48
56052;BME280;41919;42.648;23.384;2022-08-25T09:35:34;94350.06;;;30.58;36.02
56052;BME280;41919;42.648;23.384;2022-08-25T09:38:10;94369.06;;;30.86;35.89
56052;BME280;41919;42.648;23.384;2022-08-25T09:40:48;94357.25;;;30.54;37.17
56052;BME280;41919;42.648;23.384;2022-08-25T09:46:15;94359.69;;;30.47;36.43
56052;BME280;41919;42.648;23.384;2022-08-25T09:51:23;94360.84;;;30.58;34.73
56052;BME280;41919;42.648;23.384;2022-08-25T09:54:02;94369.50;;;30.52;35.85
56052;BME280;41919;42.648;23.384;2022-08-25T09:56:31;94363.84;;;30.32;36.02
56052;BME280;41919;42.648;23.384;2022-08-25T09:59:18;94370.56;;;30.05;36.42
56052;BME280;41919;42.648;23.384;2022-08-25T10:01:57;94331.59;;;29.48;37.02
56052;BME280;41919;42.648;23.384;2022-08-25T10:06:51;94370.53;;;29.29;37.86
56052;BME280;41919;42.648;23.384;2022-08-25T10:09:38;94376.47;;;29.14;37.72
56052;BME280;41919;42.648;23.384;2022-08-25T10:12:21;94367.56;;;28.84;39.15
56052;BME280;41919;42.648;23.384;2022-08-25T10:14:49;94367.03;;;28.69;39.56
56052;BME280;41919;42.648;23.384;2022-08-25T10:17:28;94365.13;;;28.70;40.01
56052;BME280;41919;42.648;23.384;2022-08-25T10:20:14;94361.88;;;28.56;40.54
56052;BME280;41919;42.648;23.384;2022-08-25T10:22:42;94355.53;;;28.51;40.48
56052;BME280;41919;42.648;23.384;2022-08-25T10:25:10;94350.00;;;28.48;39.78
56052;BME280;41919;42.648;23.384;2022-08-25T10:28:03;94358.38;;;28.46;39.76
56052;BME280;41919;42.648;23.384;2022-08-25T10:33:20;94356.44;;;28.64;39.33
56052;BME280;41919;42.648;23.384;2022-08-25T10:38:44;94359.19;;;28.56;40.04
56052;BME280;41919;42.648;23.384;2022-08-25T10:46:38;94340.38;;;28.38;38.48
56052;BME280;41919;42.648;23.384;2022-08-25T10:49:13;94336.94;;;28.29;38.60
56052;BME280;41919;42.648;23.384;2022-08-25T10:54:56;94288.66;;;28.03;38.80
56052;BME280;41919;42.648;23.384;2022-08-25T10:57:38;94334.38;;;28.41;38.37
56052;BME280;41919;42.648;23.384;2022-08-25T11:00:20;94314.00;;;28.31;38.16
56052;BME280;41919;42.648;23.384;2022-08-25T11:11:12;94316.31;;;28.50;38.17
56052;BME280;41919;42.648;23.384;2022-08-25T11:16:56;94300.69;;;28.52;38.35
56052;BME280;41919;42.648;23.384;2022-08-25T11:19:28;94272.25;;;28.34;37.99
56052;BME280;41919;42.648;23.384;2022-08-25T11:22:03;94298.59;;;28.49;38.05
56052;BME280;41919;42.648;23.384;2022-08-25T11:26:56;94299.09;;;28.51;38.45
56052;BME280;41919;42.648;23.384;2022-08-25T11:29:27;94288.81;;;28.53;39.19
56052;BME280;41919;42.648;23.384;2022-08-25T11:31:55;94288.13;;;28.65;38.79
56052;BME280;41919;42.648;23.384;2022-08-25T11:34:22;94284.03;;;28.59;39.04
56052;BME280;41919;42.648;23.384;2022-08-25T11:36:55;94240.47;;;28.36;38.88
56052;BME280;41919;42.648;23.384;2022-08-25T11:45:52;94269.22;;;28.44;38.92
56052;BME280;41919;42.648;23.384;2022-08-25T11:51:11;94168.22;;;27.75;39.24
56052;BME280;41919;42.648;23.384;2022-08-25T11:54:06;94274.53;;;28.62;38.64
56052;BME280;41919;42.648;23.384;2022-08-25T11:56:38;94211.38;;;28.08;39.10
56052;BME280;41919;42.648;23.384;2022-08-25T11:59:07;94231.56;;;28.23;39.31
56052;BME280;41919;42.648;23.384;2022-08-25T12:12:34;94267.63;;;28.43;38.24
56052;BME280;41919;42.648;23.384;2022-08-25T12:18:11;94251.31;;;28.19;37.91
56052;BME280;41919;42.648;23.384;2022-08-25T12:23:34;94271.16;;;28.35;38.60
56052;BME280;41919;42.648;23.384;2022-08-25T12:26:07;94264.50;;;28.41;38.45
56052;BME280;41919;42.648;23.384;2022-08-25T12:37:16;94261.19;;;28.35;38.74
56052;BME280;41919;42.648;23.384;2022-08-25T12:42:28;94252.53;;;28.30;37.37
56052;BME280;41919;42.648;23.384;2022-08-25T12:47:43;94218.25;;;27.80;38.03
56052;BME280;41919;42.648;23.384;2022-08-25T12:53:08;94185.72;;;27.72;37.60
56052;BME280;41919;42.648;23.384;2022-08-25T12:55:37;94258.91;;;28.16;37.66
56052;BME280;41919;42.648;23.384;2022-08-25T12:58:05;94265.19;;;28.21;37.73
56052;BME280;41919;42.648;23.384;2022-08-25T13:00:50;94265.41;;;28.15;38.01
56052;BME280;41919;42.648;23.384;2022-08-25T13:12:56;94273.16;;;28.08;39.27
56052;BME280;41919;42.648;23.384;2022-08-25T13:15:02;94276.31;;;28.10;39.74
56052;BME280;41919;42.648;23.384;2022-08-25T13:17:31;94170.97;;;27.49;39.22
56052;BME280;41919;42.648;23.384;2022-08-25T13:20:18;94276.31;;;28.10;41.17
56052;BME280;41919;42.648;23.384;2022-08-25T13:22:46;94264.75;;;28.19;40.52
56052;BME280;41919;42.648;23.384;2022-08-25T13:25:23;94268.34;;;28.31;39.06
56052;BME280;41919;42.648;23.384;2022-08-25T13:27:54;94260.25;;;28.40;39.51
56052;BME280;41919;42.648;23.384;2022-08-25T13:30:31;94257.06;;;28.38;38.54
56052;BME280;41919;42.648;23.384;2022-08-25T13:32:58;94221.50;;;28.03;38.19
56052;BME280;41919;42.648;23.384;2022-08-25T13:35:27;94268.50;;;28.26;37.48
56052;BME280;41919;42.648;23.384;2022-08-25T13:38:11;94220.44;;;27.95;38.08
56052;BME280;41919;42.648;23.384;2022-08-25T13:40:37;94263.13;;;28.26;38.60
56052;BME280;41919;42.648;23.384;2022-08-25T13:43:07;94259.97;;;28.24;37.93
56052;BME280;41919;42.648;23.384;2022-08-25T13:45:41;94237.78;;;28.06;38.16
56052;BME280;41919;42.648;23.384;2022-08-25T13:48:09;94267.09;;;28.20;38.06
56052;BME280;41919;42.648;23.384;2022-08-25T13:50:37;94264.94;;;28.13;38.89
56052;BME280;41919;42.648;23.384;2022-08-25T13:53:19;94224.88;;;27.82;38.37
56052;BME280;41919;42.648;23.384;2022-08-25T13:55:53;94273.31;;;28.03;38.33
56052;BME280;41919;42.648;23.384;2022-08-25T13:58:23;94281.44;;;27.94;38.95
56052;BME280;41919;42.648;23.384;2022-08-25T14:01:19;94216.28;;;27.50;39.27
56052;BME280;41919;42.648;23.384;2022-08-25T14:03:46;94248.13;;;27.69;38.90
56052;BME280;41919;42.648;23.384;2022-08-25T14:08:42;94266.25;;;27.81;39.05
56052;BME280;41919;42.648;23.384;2022-08-25T14:11:41;94275.91;;;27.73;39.06
56052;BME280;41919;42.648;23.384;2022-08-25T14:14:31;94264.56;;;27.68;38.85
56052;BME280;41919;42.648;23.384;2022-08-25T14:17:08;94271.31;;;27.65;39.49
56052;BME280;41919;42.648;23.384;2022-08-25T14:19:36;94250.06;;;27.43;39.54
56052;BME280;41919;42.648;23.384;2022-08-25T14:22:02;94233.66;;;27.35;39.59
56052;BME280;41919;42.648;23.384;2022-08-25T14:24:33;94274.97;;;27.61;39.45
56052;BME280;41919;42.648;23.384;2022-08-25T14:27:00;94263.47;;;27.60;39.86
56052;BME280;41919;42.648;23.384;2022-08-25T14:29:26;94265.84;;;27.62;38.97
56052;BME280;41919;42.648;23.384;2022-08-25T14:31:52;94255.41;;;27.60;39.28
56052;BME280;41919;42.648;23.384;2022-08-25T14:34:21;94266.31;;;27.64;38.52
56052;BME280;41919;42.648;23.384;2022-08-25T14:36:48;94217.09;;;27.33;38.89
56052;BME280;41919;42.648;23.384;2022-08-25T14:39:14;94208.38;;;27.36;38.89
56052;BME280;41919;42.648;23.384;2022-08-25T14:41:41;94222.00;;;27.31;38.76
56052;BME280;41919;42.648;23.384;2022-08-25T14:44:08;94258.13;;;27.43;38.88
56052;BME280;41919;42.648;23.384;2022-08-25T14:46:36;94240.44;;;27.42;39.33
56052;BME280;41919;42.648;23.384;2022-08-25T14:49:09;94219.09;;;27.19;38.87
56052;BME280;41919;42.648;23.384;2022-08-25T14:51:37;94247.22;;;27.30;39.26
56052;BME280;41919;42.648;23.384;2022-08-25T14:54:06;94259.53;;;27.31;38.74
56052;BME280;41919;42.648;23.384;2022-08-25T14:56:33;94237.09;;;27.18;38.69
56052;BME280;41919;42.648;23.384;2022-08-25T14:58:59;94266.81;;;27.31;39.01
56052;BME280;41919;42.648;23.384;2022-08-25T15:01:24;94266.91;;;27.17;39.42